Kezdőlap
METAR-TAF:

METAR-TAF

Repülőterek :

Palmer, Alaszka, Amerikai Egyesült Államok

földrajzi szélesség: 61-36N, földrajzi hosszúság: 149-05W, magasság: 74 m

Jelenlegi meteorológiai megfigyelések

A jelentés 19 perccel ezelõtt készült, 17:53 UTC
Szélcsend
Hőmérséklet -10°C
Páratartalom 85%
Légköri nyomás 1007 hPa
Látótávolság: 16.1 km
Borult 6000 lábon

METAR: PAAQ 061753Z 00000KT 10SM OVC060 M10/M12 A2974 RMK AO2 SLP076 60000 T11001117 11094 21100 55002

Idő: 09:12 (18:12 UTC)

Előrejelzés

A jelentés 31 perccel ezelõtt készült, 17:41 UTC
Az előrejelzés 06-én 18 óra UTC és 07-én 18 óra UTC között érvényes
Kelet-délkeleti szél 6 kt
Látótávolság: 10 km
Borult 6000 lábon
enyhe hózápor
07-én 0000 órától UTC szerint
Észak-északkeleti szél 9 kt
Látótávolság: 10 km
Kevés felhő 3000 lábon
Szakadozott felhőzet 7000 lábon

TAF: PAAQ 061741Z 0618/0718 12006KT P6SM -SHSN OVC060 FM070000 03009KT P6SM FEW030 BKN070

Meteorológiai megfigyelések és előrejelzések több, mint 4000 repülőtéren (METAR és TAF jelentéseket).

A térképen piros és sárga pontok jelzik az elérhető meteorológiai állomásokat.

Mozgassa az egeret a pont fölött, hogy megjelenjen az állomás neve.

Azután kattintson az időjárási megfigyelések és előrejelzések megtekintéséhez.

A térkép megváltoztatása: kattintson a fekete keresztel jelölt zöld gombra ráközelítéshez, a vonallal jelölt zöld gombra távolításhoz, vagy a zöld nyilakra a szomszédos térképek eléréséhez.


METAR-TAF: